Time;durP1;ratioP1;P1;durP2;ratioP2;P2;SDS_P1;SDS_P2;PMS_P1;PMS_P2;Temp;Humidity;BMP_temperature;BMP_pressure;BME280_temperature;BME280_humidity;BME280_pressure;Samples;Min_cycle;Max_cycle;Signal;HPM_P1;HPM_P2
2022/02/23 00:01:12;;;;;;;25.08;12.48;;;;;;;;;;5116475;28;20028;-44
2022/02/23 00:03:38;;;;;;;28.42;13.80;;;;;;;;;;5116628;28;20019;-44
2022/02/23 00:06:04;;;;;;;23.77;10.85;;;;;;;;;;5116664;28;20030;-44
2022/02/23 00:08:31;;;;;;;25.65;11.48;;;;;;;;;;5116392;28;20391;-45
2022/02/23 00:10:57;;;;;;;26.92;13.10;;;;;;;;;;5116239;28;20031;-44
2022/02/23 00:13:23;;;;;;;20.77;9.65;;;;;;;;;;5116579;28;20387;-44
2022/02/23 00:15:49;;;;;;;21.83;10.13;;;;;;;;;;5115369;28;20519;-45
2022/02/23 00:18:15;;;;;;;23.63;10.40;;;;;;;;;;5116181;28;20024;-44
2022/02/23 00:20:42;;;;;;;25.00;10.35;;;;;;;;;;5116247;28;20023;-44
2022/02/23 00:23:10;;;;;;;26.42;12.02;;;;;;;;;;5115861;28;20567;-43
2022/02/23 00:25:36;;;;;;;38.90;19.77;;;;;;;;;;5116001;28;20052;-44
2022/02/23 00:28:02;;;;;;;23.20;10.35;;;;;;;;;;5115989;28;20039;-44
2022/02/23 00:30:31;;;;;;;22.83;11.70;;;;;;;;;;5115791;28;20131;-43
2022/02/23 00:32:57;;;;;;;18.02;9.93;;;;;;;;;;5116318;28;20066;-43
2022/02/23 00:35:23;;;;;;;29.52;13.80;;;;;;;;;;5115881;28;20055;-43
2022/02/23 00:37:49;;;;;;;26.17;12.35;;;;;;;;;;5115889;28;20024;-43
2022/02/23 00:40:15;;;;;;;28.60;15.23;;;;;;;;;;5116043;28;20027;-44
2022/02/23 00:42:41;;;;;;;25.63;13.50;;;;;;;;;;5115678;28;20020;-43
2022/02/23 00:45:08;;;;;;;27.10;13.57;;;;;;;;;;5115889;28;20072;-44
2022/02/23 00:47:34;;;;;;;28.05;14.20;;;;;;;;;;5115579;28;20076;-44
2022/02/23 00:50:05;;;;;;;29.50;14.32;;;;;;;;;;5115662;28;20471;-44
2022/02/23 00:52:33;;;;;;;36.07;17.30;;;;;;;;;;5115434;28;20036;-44
2022/02/23 00:54:59;;;;;;;21.58;8.75;;;;;;;;;;5115485;28;20048;-44
2022/02/23 00:57:25;;;;;;;20.92;9.55;;;;;;;;;;5115243;28;20062;-44
2022/02/23 00:59:51;;;;;;;35.22;16.40;;;;;;;;;;5115446;28;20035;-44
2022/02/23 01:02:17;;;;;;;24.95;11.02;;;;;;;;;;5115421;28;20050;-44
2022/02/23 01:04:44;;;;;;;27.95;11.63;;;;;;;;;;5115376;28;20058;-44
2022/02/23 01:07:10;;;;;;;22.45;11.75;;;;;;;;;;5115254;28;20031;-44
2022/02/23 01:09:37;;;;;;;25.45;11.60;;;;;;;;;;5115146;28;20069;-44
2022/02/23 01:12:03;;;;;;;28.40;12.43;;;;;;;;;;5115152;28;20019;-45
2022/02/23 01:14:29;;;;;;;23.45;11.57;;;;;;;;;;5115374;28;20038;-43
2022/02/23 01:16:55;;;;;;;27.35;13.85;;;;;;;;;;5114920;28;20471;-44
2022/02/23 01:19:21;;;;;;;30.23;14.23;;;;;;;;;;5115181;28;20058;-43
2022/02/23 01:21:47;;;;;;;27.92;11.13;;;;;;;;;;5114966;28;20020;-43
2022/02/23 01:24:14;;;;;;;28.17;13.07;;;;;;;;;;5114954;28;20104;-43
2022/02/23 01:26:40;;;;;;;27.75;12.00;;;;;;;;;;5115132;28;20065;-44
2022/02/23 01:29:06;;;;;;;22.65;11.35;;;;;;;;;;5117458;27;20040;-43
2022/02/23 01:31:32;;;;;;;21.38;11.55;;;;;;;;;;5135218;27;20106;-44
2022/02/23 01:33:58;;;;;;;24.98;10.35;;;;;;;;;;5135453;27;20042;-43
2022/02/23 01:36:24;;;;;;;18.15;7.40;;;;;;;;;;5135402;27;20083;-43
2022/02/23 01:38:53;;;;;;;16.15;6.50;;;;;;;;;;5135256;27;20029;-44
2022/02/23 01:41:19;;;;;;;17.42;8.88;;;;;;;;;;5135074;27;20066;-44
2022/02/23 01:43:46;;;;;;;15.00;7.03;;;;;;;;;;5135336;27;20031;-44
2022/02/23 01:46:13;;;;;;;19.30;8.90;;;;;;;;;;5135348;27;20420;-43
2022/02/23 01:48:39;;;;;;;16.10;7.05;;;;;;;;;;5135003;27;20024;-43
2022/02/23 01:51:05;;;;;;;15.35;7.20;;;;;;;;;;5135113;27;20479;-44
2022/02/23 01:53:31;;;;;;;18.17;7.03;;;;;;;;;;5135264;27;20062;-44
2022/02/23 01:56:00;;;;;;;14.68;6.32;;;;;;;;;;5134990;27;20035;-44
2022/02/23 01:58:26;;;;;;;15.88;7.18;;;;;;;;;;5134872;27;20035;-43
2022/02/23 02:00:52;;;;;;;18.15;8.18;;;;;;;;;;5135066;27;20023;-44
2022/02/23 02:03:18;;;;;;;16.13;6.32;;;;;;;;;;5134918;27;20045;-47
2022/02/23 02:05:44;;;;;;;16.67;6.70;;;;;;;;;;5134928;27;20024;-43
2022/02/23 02:08:10;;;;;;;15.35;6.47;;;;;;;;;;5134524;27;20451;-44
2022/02/23 02:10:36;;;;;;;14.00;6.65;;;;;;;;;;5134712;27;20110;-43
2022/02/23 02:13:03;;;;;;;13.32;5.90;;;;;;;;;;5134620;27;20019;-45
2022/02/23 02:15:31;;;;;;;15.38;5.53;;;;;;;;;;5134740;27;20039;-44
2022/02/23 02:17:57;;;;;;;19.17;7.40;;;;;;;;;;5134618;27;20102;-53
2022/02/23 02:20:23;;;;;;;12.95;5.28;;;;;;;;;;5134721;27;20031;-45
2022/02/23 02:22:49;;;;;;;16.25;6.22;;;;;;;;;;5134775;27;20073;-44
2022/02/23 02:25:15;;;;;;;16.90;6.22;;;;;;;;;;5134491;27;20064;-44
2022/02/23 02:27:41;;;;;;;13.00;5.65;;;;;;;;;;5134193;27;20516;-45
2022/02/23 02:30:08;;;;;;;18.33;8.07;;;;;;;;;;5134314;27;20455;-44
2022/02/23 02:32:34;;;;;;;23.35;8.70;;;;;;;;;;5134529;27;20054;-44
2022/02/23 02:35:00;;;;;;;14.25;6.60;;;;;;;;;;5134603;27;20054;-44
2022/02/23 02:37:26;;;;;;;17.17;7.28;;;;;;;;;;5133906;27;20563;-44
2022/02/23 02:39:52;;;;;;;15.27;7.10;;;;;;;;;;5134240;27;20467;-44
2022/02/23 02:42:18;;;;;;;16.33;6.13;;;;;;;;;;5134235;27;20089;-44
2022/02/23 02:44:45;;;;;;;13.57;5.03;;;;;;;;;;5134471;28;20150;-43
2022/02/23 02:47:11;;;;;;;17.50;5.55;;;;;;;;;;5134307;28;20015;-44
2022/02/23 02:49:37;;;;;;;13.48;5.90;;;;;;;;;;5134219;28;20156;-44
2022/02/23 02:52:07;;;;;;;9.65;4.32;;;;;;;;;;5134163;28;20080;-44
2022/02/23 02:54:33;;;;;;;14.30;6.55;;;;;;;;;;5134182;28;20078;-44
2022/02/23 02:56:59;;;;;;;16.02;5.60;;;;;;;;;;5133966;28;20027;-44
2022/02/23 02:59:26;;;;;;;17.70;5.65;;;;;;;;;;5134114;28;20023;-44
2022/02/23 03:01:52;;;;;;;10.75;5.18;;;;;;;;;;5134094;28;20024;-44
2022/02/23 03:04:18;;;;;;;14.60;5.65;;;;;;;;;;5134170;28;20043;-44
2022/02/23 03:06:44;;;;;;;10.18;5.40;;;;;;;;;;5134211;28;20417;-44
2022/02/23 03:09:10;;;;;;;15.70;6.35;;;;;;;;;;5133955;28;20030;-44
2022/02/23 03:11:36;;;;;;;14.60;5.80;;;;;;;;;;5134090;28;20482;-43
2022/02/23 03:14:03;;;;;;;13.57;5.32;;;;;;;;;;5133942;28;20055;-44
2022/02/23 03:16:29;;;;;;;12.77;6.15;;;;;;;;;;5133840;28;20031;-44
2022/02/23 03:18:55;;;;;;;15.02;6.70;;;;;;;;;;5133872;28;20471;-44
2022/02/23 03:21:21;;;;;;;15.73;7.32;;;;;;;;;;5133785;28;20031;-45
2022/02/23 03:23:48;;;;;;;17.42;7.20;;;;;;;;;;5133866;28;20539;-45
2022/02/23 03:26:14;;;;;;;12.68;5.53;;;;;;;;;;5133747;28;20034;-44
2022/02/23 03:28:41;;;;;;;12.48;4.63;;;;;;;;;;5133752;28;20378;-45
2022/02/23 03:31:08;;;;;;;12.20;4.65;;;;;;;;;;5133608;28;20507;-45
2022/02/23 03:33:42;;;;;;;11.50;5.10;;;;;;;;;;5134100;28;20027;-44
2022/02/23 03:36:08;;;;;;;18.35;6.18;;;;;;;;;;5133663;28;20471;-44
2022/02/23 03:38:34;;;;;;;11.88;4.35;;;;;;;;;;5133582;28;20391;-44
2022/02/23 03:41:00;;;;;;;13.32;4.20;;;;;;;;;;5133894;28;20027;-44
2022/02/23 03:43:26;;;;;;;11.15;4.28;;;;;;;;;;5133699;28;20015;-43
2022/02/23 03:45:52;;;;;;;9.68;4.22;;;;;;;;;;5133668;28;20030;-44
2022/02/23 03:48:18;;;;;;;15.23;4.43;;;;;;;;;;5133603;28;20391;-44
2022/02/23 03:50:44;;;;;;;10.00;3.95;;;;;;;;;;5135767;27;20016;-44
2022/02/23 03:53:10;;;;;;;13.60;4.25;;;;;;;;;;5137269;27;20027;-44
2022/02/23 03:55:36;;;;;;;13.50;5.32;;;;;;;;;;5137401;27;20071;-44
2022/02/23 03:58:03;;;;;;;13.18;4.88;;;;;;;;;;5136999;27;20096;-43
2022/02/23 04:00:29;;;;;;;12.35;4.10;;;;;;;;;;5137453;27;20030;-43
2022/02/23 04:02:55;;;;;;;13.05;4.40;;;;;;;;;;5137091;27;20020;-44
2022/02/23 04:05:21;;;;;;;9.10;4.20;;;;;;;;;;5136999;27;20351;-44
2022/02/23 04:07:47;;;;;;;15.02;4.80;;;;;;;;;;5137080;27;20105;-44
2022/02/23 04:10:16;;;;;;;8.48;4.45;;;;;;;;;;5136862;27;20544;-43
2022/02/23 04:12:45;;;;;;;13.05;4.30;;;;;;;;;;5136794;27;20027;-44
2022/02/23 04:15:11;;;;;;;10.77;4.50;;;;;;;;;;5136777;27;20495;-44
2022/02/23 04:17:37;;;;;;;12.63;4.63;;;;;;;;;;5136792;27;20116;-45
2022/02/23 04:20:04;;;;;;;13.55;4.80;;;;;;;;;;5136974;27;20031;-44
2022/02/23 04:22:30;;;;;;;14.32;5.13;;;;;;;;;;5136773;27;20095;-44
2022/02/23 04:24:56;;;;;;;9.80;5.20;;;;;;;;;;5136779;27;20470;-45
2022/02/23 04:27:22;;;;;;;15.35;5.00;;;;;;;;;;5137011;27;20023;-44
2022/02/23 04:29:48;;;;;;;13.93;4.90;;;;;;;;;;5136599;27;20039;-44
2022/02/23 04:32:14;;;;;;;12.90;4.90;;;;;;;;;;5136603;27;20023;-45
2022/02/23 04:34:43;;;;;;;12.73;4.72;;;;;;;;;;5136560;27;20417;-44
2022/02/23 04:37:11;;;;;;;13.20;5.30;;;;;;;;;;5136480;27;20048;-45
2022/02/23 04:39:37;;;;;;;12.52;5.72;;;;;;;;;;5136465;27;20026;-45
2022/02/23 04:42:05;;;;;;;12.00;5.28;;;;;;;;;;5117850;27;20031;-44
2022/02/23 04:44:32;;;;;;;11.15;4.70;;;;;;;;;;5136189;27;20023;-44
2022/02/23 04:46:58;;;;;;;9.93;4.60;;;;;;;;;;5136468;27;20031;-44
2022/02/23 04:49:24;;;;;;;13.70;5.75;;;;;;;;;;5136249;27;20360;-44
2022/02/23 04:51:50;;;;;;;20.23;7.65;;;;;;;;;;5136120;27;20019;-44
2022/02/23 04:54:16;;;;;;;21.15;9.52;;;;;;;;;;5136045;27;20485;-44
2022/02/23 04:56:42;;;;;;;23.58;10.95;;;;;;;;;;5135873;27;20042;-44
2022/02/23 04:59:08;;;;;;;13.00;6.05;;;;;;;;;;5136069;27;20027;-44
2022/02/23 05:01:34;;;;;;;18.08;5.68;;;;;;;;;;5135759;27;20027;-53
2022/02/23 05:04:00;;;;;;;18.92;8.88;;;;;;;;;;5136257;27;20402;-53
2022/02/23 05:06:26;;;;;;;19.83;8.88;;;;;;;;;;5136091;27;20026;-53
2022/02/23 05:08:52;;;;;;;18.75;7.25;;;;;;;;;;5135916;27;20478;-47
2022/02/23 05:11:19;;;;;;;12.10;6.28;;;;;;;;;;5136010;27;20023;-48
2022/02/23 05:13:45;;;;;;;19.58;7.68;;;;;;;;;;5135828;27;20031;-47
2022/02/23 05:16:11;;;;;;;25.75;9.93;;;;;;;;;;5135597;27;20110;-48
2022/02/23 05:18:37;;;;;;;38.10;14.57;;;;;;;;;;5135705;27;20509;-49
2022/02/23 05:21:03;;;;;;;67.25;31.33;;;;;;;;;;5135675;27;20031;-52
2022/02/23 05:23:32;;;;;;;65.63;34.05;;;;;;;;;;5135568;27;20151;-52
2022/02/23 05:25:59;;;;;;;58.67;32.45;;;;;;;;;;5135459;27;20023;-50
2022/02/23 05:28:25;;;;;;;35.85;19.75;;;;;;;;;;5117332;27;20015;-53
2022/02/23 05:30:52;;;;;;;30.30;14.18;;;;;;;;;;5135370;27;20130;-55
2022/02/23 05:33:18;;;;;;;24.13;13.80;;;;;;;;;;5135451;27;20044;-46
2022/02/23 05:35:45;;;;;;;21.17;12.23;;;;;;;;;;5135497;27;20035;-49
2022/02/23 05:38:11;;;;;;;32.83;13.45;;;;;;;;;;5135415;27;20019;-50
2022/02/23 05:40:37;;;;;;;34.50;16.35;;;;;;;;;;5135252;27;20053;-46
2022/02/23 05:43:06;;;;;;;35.05;15.75;;;;;;;;;;5135621;27;20400;-55
2022/02/23 05:45:32;;;;;;;31.30;12.85;;;;;;;;;;5135273;27;20037;-54
2022/02/23 05:47:58;;;;;;;27.10;11.07;;;;;;;;;;5135207;27;20065;-56
2022/02/23 05:50:24;;;;;;;21.70;9.13;;;;;;;;;;5135159;27;20082;-46
2022/02/23 05:52:50;;;;;;;18.15;7.60;;;;;;;;;;5135008;27;20069;-51
2022/02/23 05:55:16;;;;;;;49.40;25.65;;;;;;;;;;5134954;27;20387;-44
2022/02/23 05:57:42;;;;;;;36.63;18.92;;;;;;;;;;5134836;27;20030;-45
2022/02/23 06:00:08;;;;;;;32.13;16.63;;;;;;;;;;5135008;27;20114;-44
2022/02/23 06:02:34;;;;;;;23.73;10.88;;;;;;;;;;5135040;27;20098;-43
2022/02/23 06:05:00;;;;;;;27.38;12.50;;;;;;;;;;5134817;27;20020;-44
2022/02/23 06:07:30;;;;;;;30.35;12.23;;;;;;;;;;5134844;27;20478;-44
2022/02/23 06:09:56;;;;;;;29.35;13.60;;;;;;;;;;5134276;27;20024;-44
2022/02/23 06:12:22;;;;;;;29.83;11.73;;;;;;;;;;5133964;27;20027;-45
2022/02/23 06:14:50;;;;;;;28.20;12.10;;;;;;;;;;5134674;27;20019;-45
2022/02/23 06:17:16;;;;;;;29.02;11.48;;;;;;;;;;5134526;27;20498;-45
2022/02/23 06:19:42;;;;;;;28.25;11.25;;;;;;;;;;5134815;27;20034;-44
2022/02/23 06:22:09;;;;;;;24.58;11.27;;;;;;;;;;5134531;27;20024;-46
2022/02/23 06:24:40;;;;;;;27.55;10.65;;;;;;;;;;5134502;27;20020;-46
2022/02/23 06:27:06;;;;;;;34.35;14.60;;;;;;;;;;5134422;27;20015;-46
2022/02/23 06:29:32;;;;;;;77.25;25.88;;;;;;;;;;5134468;27;20088;-44
2022/02/23 06:32:02;;;;;;;87.60;28.95;;;;;;;;;;5134031;27;20491;-45
2022/02/23 06:34:28;;;;;;;65.90;23.58;;;;;;;;;;5134417;27;20031;-46
2022/02/23 06:36:54;;;;;;;51.63;16.40;;;;;;;;;;5134230;28;20035;-44
2022/02/23 06:39:21;;;;;;;45.00;15.73;;;;;;;;;;5134084;27;20027;-45
2022/02/23 06:41:48;;;;;;;41.35;16.67;;;;;;;;;;5134125;27;20120;-44
2022/02/23 06:44:15;;;;;;;40.03;18.38;;;;;;;;;;5134299;27;20050;-44
2022/02/23 06:46:41;;;;;;;47.17;17.92;;;;;;;;;;5134266;28;20030;-44
2022/02/23 06:49:07;;;;;;;35.15;15.50;;;;;;;;;;5133888;28;20024;-45
2022/02/23 06:51:34;;;;;;;25.50;11.10;;;;;;;;;;5133981;28;20026;-45
2022/02/23 06:54:00;;;;;;;22.30;8.30;;;;;;;;;;5115633;28;20015;-45
2022/02/23 06:56:26;;;;;;;17.15;6.70;;;;;;;;;;5133838;28;20031;-46
2022/02/23 06:58:52;;;;;;;17.13;8.15;;;;;;;;;;5133986;27;20374;-44
2022/02/23 07:01:19;;;;;;;17.95;7.35;;;;;;;;;;5133991;28;20042;-45
2022/02/23 07:03:46;;;;;;;26.40;7.90;;;;;;;;;;5134017;28;20023;-44
2022/02/23 07:06:13;;;;;;;29.38;10.07;;;;;;;;;;5134194;28;20428;-45
2022/02/23 07:08:46;;;;;;;22.35;8.75;;;;;;;;;;5133888;28;20051;-45
2022/02/23 07:11:13;;;;;;;18.48;8.07;;;;;;;;;;5133774;28;20023;-44
2022/02/23 07:13:39;;;;;;;22.30;8.05;;;;;;;;;;5133992;28;20019;-45
2022/02/23 07:16:05;;;;;;;31.02;11.10;;;;;;;;;;5133959;28;20057;-45
2022/02/23 07:18:31;;;;;;;35.75;17.23;;;;;;;;;;5134028;28;20022;-44
2022/02/23 07:20:57;;;;;;;36.83;16.50;;;;;;;;;;5133865;28;20019;-44
2022/02/23 07:23:23;;;;;;;29.08;11.70;;;;;;;;;;5134275;27;20578;-44
2022/02/23 07:25:51;;;;;;;22.10;11.02;;;;;;;;;;5137977;27;20051;-44
2022/02/23 07:28:17;;;;;;;30.15;13.02;;;;;;;;;;5137990;27;20103;-44
2022/02/23 07:30:43;;;;;;;29.42;14.15;;;;;;;;;;5137471;27;20517;-44
2022/02/23 07:33:10;;;;;;;30.00;14.55;;;;;;;;;;5137857;27;20027;-50
2022/02/23 07:35:36;;;;;;;45.35;20.25;;;;;;;;;;5137550;27;20023;-45
2022/02/23 07:38:05;;;;;;;51.22;20.83;;;;;;;;;;5137635;27;20039;-45
2022/02/23 07:40:34;;;;;;;60.08;26.83;;;;;;;;;;5137552;27;20019;-45
2022/02/23 07:43:02;;;;;;;59.85;27.83;;;;;;;;;;5137588;27;20027;-46
2022/02/23 07:45:28;;;;;;;49.92;25.67;;;;;;;;;;5137441;27;20043;-46
2022/02/23 07:47:55;;;;;;;44.70;21.80;;;;;;;;;;5137403;27;20470;-47
2022/02/23 07:50:21;;;;;;;32.60;14.48;;;;;;;;;;5137547;27;20075;-46
2022/02/23 07:52:50;;;;;;;32.50;13.70;;;;;;;;;;5137293;27;20451;-46
2022/02/23 07:55:16;;;;;;;31.58;14.07;;;;;;;;;;5136991;27;20031;-46
2022/02/23 07:57:42;;;;;;;31.20;13.98;;;;;;;;;;5137210;27;20115;-45
2022/02/23 08:00:09;;;;;;;36.10;17.45;;;;;;;;;;5137355;27;20027;-51
2022/02/23 08:02:36;;;;;;;44.25;19.95;;;;;;;;;;5137086;27;20398;-47
2022/02/23 08:05:03;;;;;;;39.67;18.67;;;;;;;;;;5137131;27;20458;-48
2022/02/23 08:07:29;;;;;;;28.70;13.70;;;;;;;;;;5137089;27;20034;-48
2022/02/23 08:09:55;;;;;;;28.05;10.75;;;;;;;;;;5137054;27;20023;-47
2022/02/23 08:12:21;;;;;;;22.42;11.90;;;;;;;;;;5136757;27;20034;-47
2022/02/23 08:14:48;;;;;;;24.20;10.80;;;;;;;;;;5136799;27;20024;-48
2022/02/23 08:19:59;;;;;;;27.55;11.13;;;;;;;;;;5137016;27;20042;-48
2022/02/23 08:22:29;;;;;;;21.25;12.35;;;;;;;;;;5137293;27;20405;-47
2022/02/23 08:24:56;;;;;;;33.70;16.30;;;;;;;;;;5136730;27;20522;-51
2022/02/23 08:27:23;;;;;;;28.58;14.77;;;;;;;;;;5136410;27;20027;-48
2022/02/23 08:29:49;;;;;;;35.08;16.85;;;;;;;;;;5136440;27;20042;-48
2022/02/23 08:32:16;;;;;;;31.83;14.52;;;;;;;;;;5117769;27;20027;-48
2022/02/23 08:34:44;;;;;;;37.55;16.33;;;;;;;;;;5136572;27;20559;-48
2022/02/23 08:37:10;;;;;;;32.08;13.20;;;;;;;;;;5136012;27;20054;-55
2022/02/23 08:39:37;;;;;;;26.17;10.15;;;;;;;;;;5136457;27;20047;-53
2022/02/23 08:42:03;;;;;;;22.92;8.02;;;;;;;;;;5136706;27;20383;-46
2022/02/23 08:44:32;;;;;;;19.33;6.82;;;;;;;;;;5136546;27;20023;-46
2022/02/23 08:47:01;;;;;;;20.67;8.23;;;;;;;;;;5136712;27;20056;-52
2022/02/23 08:49:27;;;;;;;20.02;7.50;;;;;;;;;;5136584;27;20019;-50
2022/02/23 08:51:53;;;;;;;24.33;10.68;;;;;;;;;;5136446;27;20098;-50
2022/02/23 08:54:20;;;;;;;28.38;11.68;;;;;;;;;;5136233;27;20064;-46
2022/02/23 08:56:47;;;;;;;26.50;12.18;;;;;;;;;;5136067;27;20031;-46
2022/02/23 08:59:13;;;;;;;21.05;9.18;;;;;;;;;;5136205;27;20027;-46
2022/02/23 09:01:39;;;;;;;24.42;11.30;;;;;;;;;;5136190;27;20027;-46
2022/02/23 09:04:08;;;;;;;28.17;10.63;;;;;;;;;;5135775;27;20493;-47
2022/02/23 09:06:36;;;;;;;28.65;10.63;;;;;;;;;;5135965;27;20027;-47
2022/02/23 09:09:05;;;;;;;23.67;8.50;;;;;;;;;;5135776;27;20047;-46
2022/02/23 09:11:32;;;;;;;23.27;8.93;;;;;;;;;;5136089;27;20027;-47
2022/02/23 09:13:58;;;;;;;20.95;9.95;;;;;;;;;;5136004;27;20099;-48
2022/02/23 09:16:24;;;;;;;24.33;9.68;;;;;;;;;;5136008;27;20080;-51
2022/02/23 09:18:50;;;;;;;26.50;9.45;;;;;;;;;;5135836;27;20043;-47
2022/02/23 09:21:16;;;;;;;31.85;8.75;;;;;;;;;;5135673;27;20110;-47
2022/02/23 09:23:43;;;;;;;24.70;9.48;;;;;;;;;;5135387;27;20432;-47
2022/02/23 09:26:11;;;;;;;20.67;9.00;;;;;;;;;;5135696;27;20066;-46
2022/02/23 09:28:38;;;;;;;22.05;9.07;;;;;;;;;;5135549;27;20023;-46
2022/02/23 09:31:08;;;;;;;24.20;8.45;;;;;;;;;;5135658;27;20048;-56
2022/02/23 09:33:35;;;;;;;12.95;6.43;;;;;;;;;;5135981;27;20319;-50
2022/02/23 09:36:03;;;;;;;16.60;7.10;;;;;;;;;;5135528;27;20138;-48
2022/02/23 09:38:30;;;;;;;25.45;7.45;;;;;;;;;;5135310;27;20027;-47
2022/02/23 09:40:57;;;;;;;23.92;8.48;;;;;;;;;;5135515;27;20023;-46
2022/02/23 09:43:23;;;;;;;15.80;6.00;;;;;;;;;;5135511;27;20364;-46
2022/02/23 09:45:54;;;;;;;17.60;6.30;;;;;;;;;;5135430;27;20019;-50
2022/02/23 09:48:21;;;;;;;12.75;4.53;;;;;;;;;;5134325;27;20034;-50
2022/02/23 09:50:48;;;;;;;15.73;5.57;;;;;;;;;;5135068;27;20534;-51
2022/02/23 09:53:18;;;;;;;14.02;5.18;;;;;;;;;;5135313;27;20387;-50
2022/02/23 09:55:44;;;;;;;22.05;8.80;;;;;;;;;;5135118;27;20023;-52
2022/02/23 09:58:10;;;;;;;19.73;7.45;;;;;;;;;;5135125;27;20034;-50
2022/02/23 10:00:37;;;;;;;17.10;8.02;;;;;;;;;;5135066;27;20027;-50
2022/02/23 10:03:04;;;;;;;15.85;8.95;;;;;;;;;;5135111;27;20352;-51
2022/02/23 10:05:41;;;;;;;26.05;8.90;;;;;;;;;;5135092;27;20475;-50
2022/02/23 10:08:09;;;;;;;23.48;9.25;;;;;;;;;;5134889;27;20023;-50
2022/02/23 10:10:40;;;;;;;22.08;7.78;;;;;;;;;;5134740;27;20031;-54
2022/02/23 10:13:07;;;;;;;28.67;8.18;;;;;;;;;;5134633;27;20055;-49
2022/02/23 10:15:40;;;;;;;12.23;6.00;;;;;;;;;;5134780;27;20035;-53
2022/02/23 10:18:07;;;;;;;18.95;7.30;;;;;;;;;;5134792;27;20386;-51
2022/02/23 10:20:36;;;;;;;24.70;8.00;;;;;;;;;;5134549;27;20527;-51
2022/02/23 10:23:08;;;;;;;23.45;8.52;;;;;;;;;;5134737;27;20050;-51
2022/02/23 10:25:42;;;;;;;;;;;;;;;;;;5135071;27;20038;-49
2022/02/23 10:28:11;;;;;;;19.33;6.60;;;;;;;;;;5134744;27;20366;-50
2022/02/23 10:31:10;;;;;;;20.58;7.63;;;;;;;;;;5134399;27;20047;-50
2022/02/23 10:33:41;;;;;;;14.43;6.57;;;;;;;;;;5051347;28;20503;-47
2022/02/23 10:36:07;;;;;;;;;;;;;;;;;;5051685;28;20047;-49
2022/02/23 10:38:39;;;;;;;13.70;6.20;;;;;;;;;;5051266;28;20011;-50
2022/02/23 10:41:07;;;;;;;13.35;5.82;;;;;;;;;;5051228;28;20156;-49
2022/02/23 10:43:40;;;;;;;17.45;6.20;;;;;;;;;;5051317;28;20040;-49
2022/02/23 10:46:10;;;;;;;16.30;7.13;;;;;;;;;;5051161;28;20033;-49
2022/02/23 10:48:36;;;;;;;15.30;7.95;;;;;;;;;;5051143;28;20060;-48
2022/02/23 10:51:03;;;;;;;17.15;6.25;;;;;;;;;;5051249;28;20047;-49
2022/02/23 10:53:30;;;;;;;15.20;7.28;;;;;;;;;;5051171;28;20422;-50
2022/02/23 10:55:56;;;;;;;24.08;8.00;;;;;;;;;;5051018;28;20120;-50
2022/02/23 10:58:26;;;;;;;18.98;8.10;;;;;;;;;;5050956;28;20116;-49
2022/02/23 11:00:54;;;;;;;14.63;6.10;;;;;;;;;;5055222;28;20075;-49
2022/02/23 11:03:20;;;;;;;17.20;5.47;;;;;;;;;;5055407;28;20045;-50
2022/02/23 11:05:48;;;;;;;18.42;7.75;;;;;;;;;;5055317;28;20033;-49
2022/02/23 11:08:15;;;;;;;15.85;6.32;;;;;;;;;;5064256;27;20096;-49
2022/02/23 11:10:45;;;;;;;18.30;7.47;;;;;;;;;;5138202;27;20106;-49
2022/02/23 11:13:12;;;;;;;15.63;7.18;;;;;;;;;;5138255;27;20466;-50
2022/02/23 11:15:42;;;;;;;20.40;10.43;;;;;;;;;;5138221;27;20027;-50
2022/02/23 11:18:09;;;;;;;22.20;9.27;;;;;;;;;;5138430;27;20027;-50
2022/02/23 11:20:36;;;;;;;18.85;7.22;;;;;;;;;;5138128;27;20471;-50
2022/02/23 11:23:03;;;;;;;16.20;7.25;;;;;;;;;;5119380;27;20440;-49
2022/02/23 11:25:42;;;;;;;17.58;8.77;;;;;;;;;;5138420;27;20038;-50
2022/02/23 11:28:20;;;;;;;24.27;8.48;;;;;;;;;;5138071;27;20087;-50
2022/02/23 11:30:47;;;;;;;22.23;9.70;;;;;;;;;;5137772;27;20047;-52
2022/02/23 11:33:13;;;;;;;28.42;10.75;;;;;;;;;;5137962;27;20025;-50
2022/02/23 11:35:39;;;;;;;25.92;9.98;;;;;;;;;;5137952;27;20022;-50
2022/02/23 11:38:06;;;;;;;18.08;7.60;;;;;;;;;;5137949;27;20023;-50
2022/02/23 11:40:49;;;;;;;14.57;6.03;;;;;;;;;;5137834;27;20072;-50
2022/02/23 11:43:24;;;;;;;17.00;6.95;;;;;;;;;;5137928;27;20394;-49
2022/02/23 11:45:57;;;;;;;16.92;6.50;;;;;;;;;;5137762;27;20023;-50
2022/02/23 11:48:24;;;;;;;21.85;6.53;;;;;;;;;;5137720;27;20023;-50
2022/02/23 11:51:08;;;;;;;15.50;5.30;;;;;;;;;;5137762;27;20034;-49
2022/02/23 11:53:38;;;;;;;17.77;8.13;;;;;;;;;;5137770;27;20023;-51
2022/02/23 11:56:15;;;;;;;11.80;4.75;;;;;;;;;;5137357;27;20037;-51
2022/02/23 11:58:44;;;;;;;12.00;3.47;;;;;;;;;;5137449;27;20023;-50
2022/02/23 12:01:10;;;;;;;14.73;4.90;;;;;;;;;;5137440;27;20052;-50
2022/02/23 12:03:36;;;;;;;16.10;5.43;;;;;;;;;;5137352;27;20023;-51
2022/02/23 12:06:06;;;;;;;12.43;4.18;;;;;;;;;;5137279;27;20424;-51
2022/02/23 12:08:32;;;;;;;13.18;4.80;;;;;;;;;;5137197;27;20027;-52
2022/02/23 12:10:59;;;;;;;14.70;5.28;;;;;;;;;;5136225;27;20080;-51
2022/02/23 12:13:42;;;;;;;14.32;5.25;;;;;;;;;;5137390;27;20110;-51
2022/02/23 12:16:27;;;;;;;16.33;6.22;;;;;;;;;;5136984;27;20022;-51
2022/02/23 12:19:11;;;;;;;10.68;4.97;;;;;;;;;;5137037;27;20476;-50
2022/02/23 12:22:10;;;;;;;18.15;7.63;;;;;;;;;;5137206;27;20072;-50
2022/02/23 12:24:43;;;;;;;10.75;5.38;;;;;;;;;;5053811;28;20041;-49
2022/02/23 12:27:11;;;;;;;16.08;6.20;;;;;;;;;;5053626;28;20114;-50
2022/02/23 12:29:37;;;;;;;15.40;6.72;;;;;;;;;;5053197;28;20052;-50
2022/02/23 12:32:06;;;;;;;21.67;7.63;;;;;;;;;;5053681;28;20516;-51
2022/02/23 12:34:33;;;;;;;15.05;6.10;;;;;;;;;;5053301;28;20191;-50
2022/02/23 12:37:02;;;;;;;15.30;6.82;;;;;;;;;;5053513;28;20079;-50
2022/02/23 12:39:33;;;;;;;11.48;5.78;;;;;;;;;;5053400;28;20029;-49
2022/02/23 12:42:02;;;;;;;16.92;7.25;;;;;;;;;;5053405;28;20052;-49
2022/02/23 12:44:31;;;;;;;19.58;6.82;;;;;;;;;;5053262;28;20031;-49
2022/02/23 12:46:59;;;;;;;16.98;5.22;;;;;;;;;;5053326;28;20045;-52
2022/02/23 12:49:25;;;;;;;11.07;4.38;;;;;;;;;;5053139;28;20485;-51
2022/02/23 12:51:52;;;;;;;11.05;5.05;;;;;;;;;;5053139;28;20412;-50
2022/02/23 12:54:20;;;;;;;10.10;4.25;;;;;;;;;;5053156;28;20367;-50
2022/02/23 12:56:50;;;;;;;10.35;4.65;;;;;;;;;;5053104;28;20043;-51
2022/02/23 12:59:18;;;;;;;7.27;3.57;;;;;;;;;;5063034;27;20056;-53
2022/02/23 13:01:44;;;;;;;12.57;4.22;;;;;;;;;;5136220;27;20038;-51
2022/02/23 13:04:13;;;;;;;11.20;4.15;;;;;;;;;;5135946;27;20019;-52
2022/02/23 13:06:44;;;;;;;12.80;4.72;;;;;;;;;;5136244;27;20027;-52
2022/02/23 13:09:11;;;;;;;16.08;4.85;;;;;;;;;;5135827;27;20071;-52
2022/02/23 13:11:37;;;;;;;13.05;3.83;;;;;;;;;;5135857;27;20027;-53
2022/02/23 13:14:05;;;;;;;10.02;4.70;;;;;;;;;;5135866;27;20374;-51
2022/02/23 13:16:31;;;;;;;12.38;5.10;;;;;;;;;;5135937;27;20039;-51
2022/02/23 13:19:03;;;;;;;18.20;5.32;;;;;;;;;;5135708;27;20026;-50
2022/02/23 13:21:39;;;;;;;7.63;3.58;;;;;;;;;;5135860;27;20055;-50
2022/02/23 13:24:09;;;;;;;9.52;3.33;;;;;;;;;;5135673;27;20030;-51
2022/02/23 13:26:36;;;;;;;10.30;3.60;;;;;;;;;;5116822;27;20080;-51
2022/02/23 13:29:09;;;;;;;14.38;3.85;;;;;;;;;;5135683;27;20031;-51
2022/02/23 13:31:40;;;;;;;9.95;4.10;;;;;;;;;;5135957;27;20031;-52
2022/02/23 13:34:18;;;;;;;9.80;4.13;;;;;;;;;;5135403;27;20015;-51
2022/02/23 13:36:44;;;;;;;5.90;3.10;;;;;;;;;;5135735;27;20031;-51
2022/02/23 13:39:23;;;;;;;7.88;3.00;;;;;;;;;;5135863;27;20378;-50
2022/02/23 13:41:54;;;;;;;7.75;2.70;;;;;;;;;;5135475;27;20019;-51
2022/02/23 13:44:24;;;;;;;9.52;3.33;;;;;;;;;;5135222;27;20027;-52
2022/02/23 13:46:51;;;;;;;9.52;3.00;;;;;;;;;;5135397;27;20029;-51
2022/02/23 13:49:17;;;;;;;9.38;3.20;;;;;;;;;;5135458;27;20075;-51
2022/02/23 13:51:44;;;;;;;6.43;2.47;;;;;;;;;;5135272;27;20102;-52
2022/02/23 13:54:10;;;;;;;12.07;2.60;;;;;;;;;;5135172;27;20058;-52
2022/02/23 13:56:42;;;;;;;7.63;2.83;;;;;;;;;;5135017;27;20074;-51
2022/02/23 13:59:08;;;;;;;;;;;;;;;;;;5135566;27;20028;-48
2022/02/23 14:01:36;;;;;;;14.73;2.40;;;;;;;;;;5135468;27;19908;-50
2022/02/23 14:04:08;;;;;;;13.20;4.07;;;;;;;;;;5134938;27;20043;-51
2022/02/23 14:06:36;;;;;;;15.38;4.82;;;;;;;;;;5135039;27;20020;-49
2022/02/23 14:09:03;;;;;;;11.82;4.03;;;;;;;;;;5134845;27;20023;-50
2022/02/23 14:11:36;;;;;;;11.15;4.75;;;;;;;;;;5134786;27;20031;-47
2022/02/23 14:14:13;;;;;;;9.35;3.72;;;;;;;;;;5134753;27;20106;-50
2022/02/23 14:16:41;;;;;;;20.95;7.97;;;;;;;;;;5104869;28;20475;-53
2022/02/23 14:19:15;;;;;;;24.77;13.60;;;;;;;;;;5112709;28;20487;-49
2022/02/23 14:21:42;;;;;;;41.42;12.95;;;;;;;;;;5110635;28;20077;-49
2022/02/23 14:24:09;;;;;;;60.47;32.90;;;;;;;;;;5112716;28;20016;-50
2022/02/23 14:26:35;;;;;;;37.47;15.68;;;;;;;;;;5112353;28;20455;-47
2022/02/23 14:29:03;;;;;;;40.53;19.48;;;;;;;;;;5089255;27;20373;-44
2022/02/23 14:31:33;;;;;;;53.47;30.17;;;;;;;;;;5084596;27;20529;-46